createdAt,value
2018-07-26T00:00:05.587Z,15.40
2018-07-26T00:02:33.717Z,14.13
2018-07-26T00:05:01.837Z,15.57
2018-07-26T00:07:30.002Z,14.13
2018-07-26T00:09:58.179Z,14.50
2018-07-26T00:12:26.389Z,14.70
2018-07-26T00:14:54.617Z,13.70
2018-07-26T00:17:22.997Z,14.90
2018-07-26T00:19:51.320Z,13.47
2018-07-26T00:22:19.488Z,13.67
2018-07-26T00:24:47.607Z,13.23
2018-07-26T00:27:15.730Z,13.57
2018-07-26T00:29:43.848Z,13.23
2018-07-26T00:32:11.973Z,12.37
2018-07-26T00:34:40.116Z,13.10
2018-07-26T00:37:08.236Z,14.17
2018-07-26T00:39:36.388Z,13.20
2018-07-26T00:42:04.513Z,13.33
2018-07-26T00:44:32.650Z,13.17
2018-07-26T00:47:00.850Z,13.70
2018-07-26T00:49:29.024Z,12.87
2018-07-26T00:51:57.177Z,13.67
2018-07-26T00:54:25.395Z,12.73
2018-07-26T00:56:53.602Z,14.03
2018-07-26T00:59:22.107Z,14.20
2018-07-26T01:01:50.409Z,12.80
2018-07-26T01:04:18.617Z,14.90
2018-07-26T01:06:46.745Z,13.33
2018-07-26T01:09:14.949Z,15.07
2018-07-26T01:11:43.082Z,13.00
2018-07-26T01:14:11.281Z,14.03
2018-07-26T01:16:39.476Z,14.43
2018-07-26T01:19:07.654Z,14.73
2018-07-26T01:21:35.831Z,13.90
2018-07-26T01:24:04.052Z,14.60
2018-07-26T01:26:32.222Z,13.90
2018-07-26T01:29:00.347Z,15.40
2018-07-26T01:31:28.484Z,14.63
2018-07-26T01:33:56.627Z,14.50
2018-07-26T01:36:24.756Z,13.40
2018-07-26T01:38:52.889Z,14.50
2018-07-26T01:41:21.030Z,15.20
2018-07-26T01:44:00.447Z,14.23
2018-07-26T01:46:28.593Z,13.57
2018-07-26T01:48:56.728Z,14.03
2018-07-26T01:51:24.871Z,13.90
2018-07-26T01:53:53.046Z,13.50
2018-07-26T01:56:21.180Z,14.10
2018-07-26T01:58:49.605Z,12.80
2018-07-26T02:01:17.753Z,13.97
2018-07-26T02:03:45.943Z,14.20
2018-07-26T02:06:14.135Z,14.10
2018-07-26T02:08:42.274Z,13.00
2018-07-26T02:11:10.435Z,13.77
2018-07-26T02:13:38.623Z,12.73
2018-07-26T02:16:07.557Z,14.50
2018-07-26T02:18:35.700Z,13.90
2018-07-26T02:21:03.831Z,13.70
2018-07-26T02:23:31.970Z,13.87
2018-07-26T02:26:00.124Z,14.03
2018-07-26T02:28:28.260Z,13.97
2018-07-26T02:30:56.487Z,14.87
2018-07-26T02:33:25.045Z,13.90
2018-07-26T02:35:53.217Z,13.40
2018-07-26T02:38:21.367Z,13.97
2018-07-26T02:40:49.567Z,13.43
2018-07-26T02:43:17.748Z,13.07
2018-07-26T02:45:45.925Z,13.40
2018-07-26T02:48:14.114Z,14.23
2018-07-26T02:50:42.306Z,13.77
2018-07-26T02:53:10.436Z,13.67
2018-07-26T02:55:38.632Z,14.40
2018-07-26T02:58:07.168Z,14.77
2018-07-26T03:00:35.294Z,13.90
2018-07-26T03:03:03.474Z,13.53
2018-07-26T03:05:31.613Z,13.80
2018-07-26T03:07:59.775Z,15.23
2018-07-26T03:10:27.930Z,15.00
2018-07-26T03:12:56.081Z,13.80
2018-07-26T03:15:24.225Z,13.87
2018-07-26T03:17:52.422Z,14.47
2018-07-26T03:20:20.570Z,13.77
2018-07-26T03:22:48.710Z,12.83
2018-07-26T03:25:16.853Z,13.23
2018-07-26T03:27:44.984Z,13.90
2018-07-26T03:30:13.136Z,14.73
2018-07-26T03:32:41.325Z,15.13
2018-07-26T03:35:09.488Z,15.40
2018-07-26T03:37:37.650Z,15.90
2018-07-26T03:40:06.066Z,13.33
2018-07-26T03:42:34.221Z,16.10
2018-07-26T03:45:02.337Z,14.37
2018-07-26T03:47:30.477Z,14.60
2018-07-26T03:49:58.617Z,14.77
2018-07-26T03:52:26.770Z,14.03
2018-07-26T03:54:54.903Z,14.43
2018-07-26T03:57:23.046Z,15.40
2018-07-26T03:59:51.193Z,13.83
2018-07-26T04:02:19.345Z,15.23
2018-07-26T04:04:47.480Z,14.87
2018-07-26T04:07:15.644Z,14.20
2018-07-26T04:09:43.813Z,15.07
2018-07-26T04:12:11.942Z,14.50
2018-07-26T04:14:40.098Z,13.60
2018-07-26T04:17:08.235Z,14.40
2018-07-26T04:19:36.412Z,14.33
2018-07-26T04:22:04.620Z,15.33
2018-07-26T04:24:32.774Z,15.83
2018-07-26T04:27:00.925Z,16.63
2018-07-26T04:29:29.064Z,15.70
2018-07-26T04:31:57.221Z,13.90
2018-07-26T04:34:25.328Z,13.80
2018-07-26T04:36:53.441Z,13.43
2018-07-26T04:39:21.636Z,13.20
2018-07-26T04:41:49.762Z,13.20
2018-07-26T04:44:17.905Z,12.87
2018-07-26T04:46:46.046Z,13.10
2018-07-26T04:49:14.201Z,13.13
2018-07-26T04:51:42.344Z,16.03
2018-07-26T04:54:10.500Z,14.60
2018-07-26T04:56:38.674Z,13.97
2018-07-26T04:59:06.920Z,16.80
2018-07-26T05:01:35.151Z,13.13
2018-07-26T05:04:03.353Z,14.50
2018-07-26T05:06:31.480Z,14.40
2018-07-26T05:08:59.622Z,14.97
2018-07-26T05:11:27.753Z,14.57
2018-07-26T05:13:55.886Z,14.50
2018-07-26T05:16:24.016Z,15.20
2018-07-26T05:18:52.165Z,13.73
2018-07-26T05:21:20.326Z,15.33
2018-07-26T05:23:48.474Z,15.10
2018-07-26T05:26:22.506Z,15.40
2018-07-26T05:28:50.648Z,14.43
2018-07-26T05:31:18.797Z,15.20
2018-07-26T05:33:46.954Z,15.80
2018-07-26T05:36:15.101Z,15.57
2018-07-26T05:38:43.293Z,14.83
2018-07-26T05:41:11.458Z,16.10
2018-07-26T05:43:39.661Z,16.93
2018-07-26T05:46:08.017Z,14.57
2018-07-26T05:48:36.167Z,16.07
2018-07-26T05:51:04.306Z,15.70
2018-07-26T05:53:32.441Z,15.00
2018-07-26T05:56:00.575Z,15.87
2018-07-26T05:58:28.718Z,15.77
2018-07-26T06:00:56.857Z,14.33
2018-07-26T06:03:24.982Z,14.60
2018-07-26T06:05:53.117Z,15.00
2018-07-26T06:08:21.237Z,15.47
2018-07-26T06:10:49.361Z,13.70
2018-07-26T06:13:17.516Z,15.07
2018-07-26T06:15:45.664Z,15.90
2018-07-26T06:18:13.815Z,16.37
2018-07-26T06:20:42.915Z,15.33
2018-07-26T06:23:11.037Z,16.10
2018-07-26T06:25:39.204Z,16.00
2018-07-26T06:28:07.659Z,15.93
2018-07-26T06:30:35.778Z,14.97
2018-07-26T06:33:03.929Z,15.90
2018-07-26T06:35:32.104Z,14.87
2018-07-26T06:38:00.285Z,15.90
2018-07-26T06:40:28.458Z,15.60
2018-07-26T06:42:56.595Z,15.00
2018-07-26T06:45:24.734Z,14.63
2018-07-26T06:47:52.886Z,17.17
2018-07-26T06:50:21.264Z,14.13
2018-07-26T06:52:49.471Z,13.87
2018-07-26T06:55:17.599Z,13.97
2018-07-26T06:57:45.731Z,15.97
2018-07-26T07:00:13.965Z,14.07
2018-07-26T07:02:42.118Z,14.57
2018-07-26T07:05:10.732Z,14.13
2018-07-26T07:07:39.314Z,13.10
2018-07-26T07:10:07.574Z,13.90
2018-07-26T07:12:37.625Z,15.27
2018-07-26T07:15:06.023Z,14.37
2018-07-26T07:17:34.169Z,13.53
2018-07-26T07:20:02.334Z,13.77
2018-07-26T07:22:30.525Z,14.00
2018-07-26T07:24:58.693Z,13.07
2018-07-26T07:27:26.889Z,12.70
2018-07-26T07:29:55.037Z,13.47
2018-07-26T07:32:23.190Z,13.60
2018-07-26T07:34:51.341Z,14.00
2018-07-26T07:37:19.553Z,13.10
2018-07-26T07:39:47.711Z,13.13
2018-07-26T07:42:15.877Z,13.17
2018-07-26T07:44:44.486Z,12.40
2018-07-26T07:47:13.041Z,12.13
2018-07-26T07:49:41.257Z,13.00
2018-07-26T07:52:09.641Z,12.00
2018-07-26T07:54:37.794Z,12.07
2018-07-26T07:57:06.258Z,12.00
2018-07-26T07:59:34.464Z,10.33
2018-07-26T08:02:02.614Z,10.80
2018-07-26T08:04:30.821Z,11.50
2018-07-26T08:06:59.035Z,10.90
2018-07-26T08:09:27.154Z,10.47
2018-07-26T08:11:55.366Z,10.17
2018-07-26T08:14:23.485Z,9.10
2018-07-26T08:16:51.670Z,9.00
2018-07-26T08:19:19.834Z,9.87
2018-07-26T08:21:48.063Z,8.43
2018-07-26T08:24:16.626Z,8.70
2018-07-26T08:26:44.845Z,8.57
2018-07-26T08:29:13.041Z,8.60
2018-07-26T08:31:41.246Z,9.50
2018-07-26T08:34:09.461Z,8.83
2018-07-26T08:36:37.647Z,9.03
2018-07-26T08:39:07.921Z,8.30
2018-07-26T08:41:36.777Z,8.40
2018-07-26T08:44:04.945Z,8.50
2018-07-26T08:46:33.146Z,8.00
2018-07-26T08:49:01.306Z,8.23
2018-07-26T08:51:29.465Z,7.87
2018-07-26T08:53:57.619Z,8.93
2018-07-26T08:56:25.779Z,7.63
2018-07-26T08:58:54.197Z,7.83
2018-07-26T09:01:22.405Z,8.37
2018-07-26T09:03:51.398Z,8.53
2018-07-26T09:06:19.649Z,7.20
2018-07-26T09:08:47.793Z,6.53
2018-07-26T09:11:15.962Z,8.27
2018-07-26T09:13:44.142Z,7.00
2018-07-26T09:16:12.328Z,6.53
2018-07-26T09:18:40.493Z,6.37
2018-07-26T09:21:08.692Z,6.97
2018-07-26T09:23:36.877Z,6.60
2018-07-26T09:26:05.213Z,6.00
2018-07-26T09:28:33.342Z,6.73
2018-07-26T09:31:01.479Z,6.50
2018-07-26T09:33:29.618Z,5.43
2018-07-26T09:35:57.759Z,6.23
2018-07-26T09:38:25.972Z,5.67
2018-07-26T09:40:54.108Z,5.60
2018-07-26T09:43:22.317Z,4.83
2018-07-26T09:45:50.586Z,4.83
2018-07-26T09:48:18.816Z,4.50
2018-07-26T09:50:46.945Z,4.87
2018-07-26T09:53:15.305Z,4.23
2018-07-26T09:55:43.444Z,4.47
2018-07-26T09:58:12.180Z,4.10
2018-07-26T10:00:46.730Z,4.07
2018-07-26T10:03:14.889Z,3.60
2018-07-26T10:05:43.117Z,3.73
2018-07-26T10:08:11.280Z,4.50
2018-07-26T10:10:39.574Z,3.93
2018-07-26T10:13:07.741Z,3.70
2018-07-26T10:15:35.968Z,3.70
2018-07-26T10:18:04.197Z,3.50
2018-07-26T10:20:32.425Z,3.57
2018-07-26T10:23:00.650Z,4.00
2018-07-26T10:25:28.918Z,3.40
2018-07-26T10:27:57.108Z,4.17
2018-07-26T10:30:25.287Z,3.90
2018-07-26T10:32:53.461Z,4.10
2018-07-26T10:35:21.690Z,4.33
2018-07-26T10:37:50.358Z,4.63
2018-07-26T10:40:18.572Z,4.03
2018-07-26T10:42:46.743Z,5.17
2018-07-26T10:45:14.950Z,4.67
2018-07-26T10:47:43.198Z,4.17
2018-07-26T10:50:11.566Z,4.73
2018-07-26T10:52:39.773Z,4.17
2018-07-26T10:55:08.563Z,4.30
2018-07-26T10:57:37.881Z,4.90
2018-07-26T11:00:07.071Z,4.43
2018-07-26T11:02:35.326Z,4.17
2018-07-26T11:05:03.778Z,4.30
2018-07-26T11:07:31.966Z,4.43
2018-07-26T11:10:00.153Z,5.13
2018-07-26T11:12:28.417Z,4.40
2018-07-26T11:15:03.584Z,4.43
2018-07-26T11:17:31.766Z,4.63
2018-07-26T11:20:00.012Z,4.00
2018-07-26T11:22:28.186Z,4.93
2018-07-26T11:24:56.436Z,5.73
2018-07-26T11:27:25.492Z,4.30
2018-07-26T11:29:53.705Z,3.97
2018-07-26T11:32:22.078Z,4.10
2018-07-26T11:34:50.662Z,4.53
2018-07-26T11:37:19.005Z,4.90
2018-07-26T11:39:47.257Z,4.20
2018-07-26T11:42:15.789Z,4.20
2018-07-26T11:44:44.028Z,4.00
2018-07-26T11:47:12.230Z,4.23
2018-07-26T11:49:40.889Z,3.40
2018-07-26T11:52:09.085Z,4.17
2018-07-26T11:54:37.338Z,3.90
2018-07-26T11:57:05.550Z,3.57
2018-07-26T11:59:33.724Z,4.20
2018-07-26T12:02:01.927Z,5.70
2018-07-26T12:04:30.101Z,4.00
2018-07-26T12:06:58.250Z,4.93
2018-07-26T12:09:26.433Z,3.90
2018-07-26T12:11:54.648Z,4.40
2018-07-26T12:14:22.870Z,4.17
2018-07-26T12:16:51.022Z,3.30
2018-07-26T12:19:19.185Z,3.77
2018-07-26T12:21:47.373Z,4.00
2018-07-26T12:24:15.560Z,4.43
2018-07-26T12:26:44.011Z,3.60
2018-07-26T12:29:12.202Z,3.67
2018-07-26T12:31:40.445Z,3.23
2018-07-26T12:34:08.665Z,3.20
2018-07-26T12:36:37.826Z,3.20
2018-07-26T12:39:08.818Z,3.00
2018-07-26T12:41:38.331Z,3.40
2018-07-26T12:44:06.644Z,3.70
2018-07-26T12:46:34.980Z,3.60
2018-07-26T12:49:03.930Z,3.30
2018-07-26T12:51:32.259Z,3.10
2018-07-26T12:54:00.574Z,6.23
2018-07-26T12:56:28.947Z,3.43
2018-07-26T12:58:57.430Z,2.77
2018-07-26T13:01:25.966Z,3.20
2018-07-26T13:03:54.348Z,3.30
2018-07-26T13:06:23.687Z,3.50
2018-07-26T13:08:52.171Z,3.73
2018-07-26T13:11:20.315Z,4.27
2018-07-26T13:13:48.465Z,3.30
2018-07-26T13:16:17.140Z,2.87
2018-07-26T13:18:45.331Z,3.33
2018-07-26T13:21:13.570Z,3.73
2018-07-26T13:23:41.773Z,3.60
2018-07-26T13:26:10.023Z,3.63
2018-07-26T13:28:38.356Z,3.73
2018-07-26T13:31:06.679Z,3.37
2018-07-26T13:33:35.378Z,3.23
2018-07-26T13:36:03.528Z,3.80
2018-07-26T13:38:31.727Z,3.43
2018-07-26T13:40:59.917Z,3.20
2018-07-26T13:43:28.176Z,3.07
2018-07-26T13:45:56.341Z,3.10
2018-07-26T13:48:24.509Z,3.60
2018-07-26T13:50:52.680Z,3.60
2018-07-26T13:53:20.859Z,3.83
2018-07-26T13:55:49.031Z,3.67
2018-07-26T13:58:17.263Z,3.67
2018-07-26T14:00:45.445Z,4.00
2018-07-26T14:03:13.769Z,3.63
2018-07-26T14:05:42.097Z,3.67
2018-07-26T14:08:10.319Z,4.00
2018-07-26T14:10:38.535Z,3.80
2018-07-26T14:13:08.218Z,3.50
2018-07-26T14:15:36.437Z,3.80
2018-07-26T14:18:04.658Z,3.33
2018-07-26T14:20:32.873Z,3.70
2018-07-26T14:23:01.055Z,4.03
2018-07-26T14:25:29.254Z,3.30
2018-07-26T14:27:58.426Z,3.30
2018-07-26T14:30:26.897Z,3.83
2018-07-26T14:32:55.054Z,4.10
2018-07-26T14:35:23.193Z,3.70
2018-07-26T14:37:51.384Z,4.20
2018-07-26T14:40:19.641Z,4.50
2018-07-26T14:42:47.854Z,4.10
2018-07-26T14:45:16.069Z,4.00
2018-07-26T14:47:44.329Z,4.50
2018-07-26T14:50:12.526Z,3.20
2018-07-26T14:52:40.725Z,4.50
2018-07-26T14:55:09.022Z,3.97
2018-07-26T14:57:37.301Z,3.90
2018-07-26T15:00:05.823Z,3.50
2018-07-26T15:02:34.006Z,4.30
2018-07-26T15:05:02.208Z,3.93
2018-07-26T15:07:30.499Z,3.93
2018-07-26T15:09:58.694Z,4.10
2018-07-26T15:12:27.842Z,4.30
2018-07-26T15:14:55.990Z,5.30
2018-07-26T15:17:54.817Z,4.10
2018-07-26T15:20:22.991Z,4.20
2018-07-26T15:22:51.185Z,3.83
2018-07-26T15:25:27.217Z,4.90
2018-07-26T15:27:56.496Z,4.20
2018-07-26T15:30:24.687Z,4.40
2018-07-26T15:32:53.734Z,4.10
2018-07-26T15:35:21.890Z,4.40
2018-07-26T15:37:50.427Z,3.97
2018-07-26T15:40:19.013Z,4.20
2018-07-26T15:42:47.178Z,4.23
2018-07-26T15:45:15.335Z,4.30
2018-07-26T15:47:43.586Z,3.93
2018-07-26T15:50:11.811Z,4.33
2018-07-26T15:52:39.969Z,4.30
2018-07-26T15:55:08.254Z,4.47
2018-07-26T15:57:36.411Z,3.70
2018-07-26T16:00:07.277Z,4.17
2018-07-26T16:02:35.421Z,5.40
2018-07-26T16:05:03.599Z,4.80
2018-07-26T16:07:31.775Z,3.80
2018-07-26T16:09:59.967Z,3.73
2018-07-26T16:12:29.195Z,4.50
2018-07-26T16:14:57.353Z,4.23
2018-07-26T16:17:25.520Z,4.10
2018-07-26T16:19:53.654Z,4.00
2018-07-26T16:22:21.855Z,4.47
2018-07-26T16:24:49.956Z,4.27
2018-07-26T16:27:18.117Z,5.30
2018-07-26T16:29:46.258Z,5.20
2018-07-26T16:32:14.453Z,6.00
2018-07-26T16:34:43.569Z,4.80
2018-07-26T16:37:11.750Z,4.20
2018-07-26T16:39:39.967Z,4.47
2018-07-26T16:42:08.245Z,5.17
2018-07-26T16:44:36.417Z,4.47
2018-07-26T16:47:04.645Z,4.47
2018-07-26T16:49:32.815Z,4.40
2018-07-26T16:52:01.277Z,3.93
2018-07-26T16:54:29.966Z,4.50
2018-07-26T16:56:58.206Z,5.27
2018-07-26T16:59:26.534Z,4.57
2018-07-26T17:01:54.753Z,4.47
2018-07-26T17:04:22.879Z,4.03
2018-07-26T17:06:51.048Z,4.00
2018-07-26T17:09:19.201Z,4.60
2018-07-26T17:11:47.405Z,4.40
2018-07-26T17:14:15.559Z,4.30
2018-07-26T17:16:43.709Z,4.40
2018-07-26T17:19:11.917Z,4.30
2018-07-26T17:21:40.073Z,4.00
2018-07-26T17:24:08.238Z,3.73
2018-07-26T17:26:36.424Z,4.17
2018-07-26T17:29:04.641Z,3.90
2018-07-26T17:31:32.774Z,3.80
2018-07-26T17:34:00.909Z,5.97
2018-07-26T17:36:29.107Z,4.90
2018-07-26T17:38:57.378Z,5.70
2018-07-26T17:41:25.532Z,4.30
2018-07-26T17:43:53.666Z,4.20
2018-07-26T17:46:21.800Z,4.30
2018-07-26T17:48:49.917Z,4.73
2018-07-26T17:51:18.085Z,4.53
2018-07-26T17:53:46.247Z,4.87
2018-07-26T17:56:14.488Z,4.77
2018-07-26T17:58:42.697Z,5.93
2018-07-26T18:01:10.886Z,5.63
2018-07-26T18:03:39.053Z,4.70
2018-07-26T18:06:07.218Z,5.13
2018-07-26T18:08:35.378Z,5.60
2018-07-26T18:11:03.529Z,5.57
2018-07-26T18:13:31.656Z,5.70
2018-07-26T18:15:59.934Z,5.60
2018-07-26T18:18:28.065Z,5.17
2018-07-26T18:20:56.209Z,5.60
2018-07-26T18:23:24.385Z,4.63
2018-07-26T18:25:52.513Z,5.00
2018-07-26T18:28:20.664Z,4.60
2018-07-26T18:30:48.785Z,5.13
2018-07-26T18:33:16.932Z,4.97
2018-07-26T18:35:45.105Z,5.17
2018-07-26T18:38:13.310Z,5.27
2018-07-26T18:40:41.489Z,6.20
2018-07-26T18:43:09.669Z,8.07
2018-07-26T18:45:37.870Z,8.80
2018-07-26T18:48:06.025Z,11.70
2018-07-26T18:50:34.195Z,15.60
2018-07-26T18:53:02.324Z,16.90
2018-07-26T18:55:30.471Z,16.93
2018-07-26T18:57:58.642Z,16.90
2018-07-26T19:00:26.927Z,17.27
2018-07-26T19:02:55.059Z,16.13
2018-07-26T19:05:23.232Z,15.93
2018-07-26T19:07:51.391Z,16.67
2018-07-26T19:10:19.525Z,16.60
2018-07-26T19:12:47.709Z,16.80
2018-07-26T19:15:15.865Z,30.57
2018-07-26T19:17:43.992Z,26.73
2018-07-26T19:20:12.232Z,42.03
2018-07-26T19:22:40.404Z,22.83
2018-07-26T19:25:09.411Z,14.97
2018-07-26T19:27:37.837Z,9.53
2018-07-26T19:30:07.557Z,15.77
2018-07-26T19:32:35.714Z,14.07
2018-07-26T19:35:03.879Z,14.30
2018-07-26T19:37:32.041Z,14.03
2018-07-26T19:40:00.174Z,11.83
2018-07-26T19:42:28.286Z,12.50
2018-07-26T19:44:56.452Z,11.97
2018-07-26T19:47:24.813Z,10.47
2018-07-26T19:49:53.031Z,7.70
2018-07-26T19:52:21.158Z,6.80
2018-07-26T19:54:49.297Z,6.90
2018-07-26T19:57:17.432Z,6.70
2018-07-26T19:59:45.585Z,6.40
2018-07-26T20:02:13.763Z,7.00
2018-07-26T20:04:42.018Z,6.43
2018-07-26T20:07:10.254Z,6.33
2018-07-26T20:09:38.450Z,6.70
2018-07-26T20:12:06.963Z,6.40
2018-07-26T20:14:35.099Z,6.10
2018-07-26T20:17:03.330Z,5.40
2018-07-26T20:19:31.455Z,6.50
2018-07-26T20:21:59.610Z,6.13
2018-07-26T20:24:27.737Z,6.07
2018-07-26T20:26:55.945Z,6.73
2018-07-26T20:29:24.071Z,6.27
2018-07-26T20:31:52.229Z,5.90
2018-07-26T20:34:20.387Z,5.93
2018-07-26T20:36:48.516Z,5.90
2018-07-26T20:39:16.648Z,6.10
2018-07-26T20:41:44.789Z,6.20
2018-07-26T20:44:12.985Z,6.30
2018-07-26T20:46:41.210Z,6.43
2018-07-26T20:49:09.499Z,6.50
2018-07-26T20:51:37.833Z,6.00
2018-07-26T20:54:06.131Z,22.60
2018-07-26T20:56:34.389Z,11.70
2018-07-26T20:59:02.530Z,10.90
2018-07-26T21:01:30.729Z,8.30
2018-07-26T21:03:58.896Z,7.90
2018-07-26T21:06:27.028Z,6.83
2018-07-26T21:08:55.272Z,6.17
2018-07-26T21:11:23.459Z,7.33
2018-07-26T21:13:51.595Z,6.60
2018-07-26T21:16:19.747Z,6.40
2018-07-26T21:18:47.933Z,6.60
2018-07-26T21:21:16.080Z,6.53
2018-07-26T21:23:44.205Z,5.73
2018-07-26T21:26:12.370Z,6.23
2018-07-26T21:28:40.537Z,5.67
2018-07-26T21:31:08.765Z,6.23
2018-07-26T21:33:36.881Z,6.50
2018-07-26T21:36:05.237Z,6.17
2018-07-26T21:38:33.370Z,6.53
2018-07-26T21:41:01.501Z,6.90
2018-07-26T21:43:29.632Z,6.30
2018-07-26T21:45:57.753Z,6.27
2018-07-26T21:48:31.725Z,5.83
2018-07-26T21:50:59.855Z,6.20
2018-07-26T21:53:27.988Z,5.40
2018-07-26T21:55:56.105Z,5.50
2018-07-26T21:58:24.237Z,6.70
2018-07-26T22:00:56.687Z,6.70
2018-07-26T22:03:27.197Z,6.27
2018-07-26T22:05:55.612Z,6.10
2018-07-26T22:08:23.790Z,5.90
2018-07-26T22:10:51.921Z,6.90
2018-07-26T22:13:20.753Z,6.47
2018-07-26T22:15:50.080Z,6.20
2018-07-26T22:18:18.228Z,6.10
2018-07-26T22:20:46.347Z,6.87
2018-07-26T22:23:14.545Z,6.30
2018-07-26T22:25:46.481Z,6.73
2018-07-26T22:28:14.638Z,7.00
2018-07-26T22:30:42.867Z,7.47
2018-07-26T22:33:11.235Z,7.33
2018-07-26T22:35:39.673Z,7.07
2018-07-26T22:38:07.862Z,5.87
2018-07-26T22:40:36.134Z,6.40
2018-07-26T22:43:04.376Z,6.20
2018-07-26T22:45:32.545Z,6.67
2018-07-26T22:48:00.687Z,6.67
2018-07-26T22:50:28.803Z,6.20
2018-07-26T22:52:57.062Z,6.23
2018-07-26T22:55:25.201Z,6.60
2018-07-26T22:57:53.329Z,6.47
2018-07-26T23:00:21.484Z,6.70
2018-07-26T23:02:49.608Z,7.70
2018-07-26T23:05:17.733Z,6.67
2018-07-26T23:07:45.871Z,6.70
2018-07-26T23:10:14.009Z,7.00
2018-07-26T23:12:42.168Z,6.70
2018-07-26T23:15:11.281Z,7.30
2018-07-26T23:17:39.803Z,6.60
2018-07-26T23:20:09.399Z,6.77
2018-07-26T23:22:37.574Z,6.97
2018-07-26T23:25:06.296Z,7.00
2018-07-26T23:27:34.521Z,6.30
2018-07-26T23:30:02.650Z,5.97
2018-07-26T23:32:30.771Z,6.87
2018-07-26T23:34:58.889Z,7.63
2018-07-26T23:37:27.012Z,7.43
2018-07-26T23:39:55.257Z,7.50
2018-07-26T23:42:23.381Z,6.97
2018-07-26T23:44:51.513Z,6.87
2018-07-26T23:47:19.637Z,7.90
2018-07-26T23:49:47.774Z,7.00
2018-07-26T23:52:15.910Z,7.50
2018-07-26T23:54:44.063Z,8.20
2018-07-26T23:57:12.206Z,6.87
2018-07-26T23:59:40.337Z,6.70
